Details From LPLA - Lajes
To LPPD - Ponta Delgada
Flight Number -
Tags Routegen Generated
Created
Modified
Stats Distance 89 nm / 165 km
Max Altitude 200 ft / 61 m
Waypoints 6
Social Downloads 8
Likes 0
Share VATSIM

Download

Looking for another format? Having issues loading an existing format? Contact us
Advertisement - Login to hide

Notes

Departing runway 14 LPLA. Arriving runway 12 LPPD.

Route

LPLA +38.70_-027.02 +38.33_-026.53 +37.81_-025.85 +37.77_-025.80 LPPD

ID Type Via Altitude Latitude Longitude Leg Dist Tot Dist Heading (true) Name
O LPLA APT - 200 ft / 61 m 38.75287˚ -27.08141˚ - 0 nm - -
+38.70_-027.02 LATLON - 200 ft / 61 m 38.69676˚ -27.02284˚ 4 nm 4 nm 141° / 141° -
+38.33_-026.53 LATLON - 200 ft / 61 m 38.32563˚ -26.52666˚ 32 nm 36 nm 134° / 134° -
+37.81_-025.85 LATLON - 200 ft / 61 m 37.81163˚ -25.85055˚ 44 nm 81 nm 134° / 134° -
+37.77_-025.80 LATLON - 200 ft / 61 m 37.77307˚ -25.79591˚ 3 nm 84 nm 132° / 132° -
O LPPD APT - 0 ft / 0 m 37.74624˚ -25.71090˚ 4 nm 88 nm 112° / 112° -

Altitude Profile

Advertisement - Login to hide

LPLA

Details ICAO LPLA (TER)
Name LAJES
Region Portugal
Timezone Atlantic/Azores (UTC-1.0)
Stats Elevation 180 ft / 55 m (AMSL)
Location 38.764410° -27.093482°
Runways 1
Magnetic Variation 8.934° W

METAR

LPLA 162000Z /////KT 9999 FEW012 BKN023 17/16 Q1030

Decode

TAF

TAF LPLA 161705Z 1618/1718 27005KT 9999 FEW020 SCT030 TEMPO 1618/1624 FEW015 BKN020 BECMG 1623/1701 19010KT

Decode

Departure Runways

ID Width Length Bearing (true) Bearing (mag) Surface Threshold Offset Overrun Length
15 197 ft / 60 m 10,869 ft / 3,313 m 140.81° 149.74° Asphalt 0 ft / 0 m 991 ft / 302 m
33 197 ft / 60 m 10,869 ft / 3,313 m 320.82° 329.75° Asphalt 0 ft / 0 m 1,040 ft / 317 m

LPPD

Details ICAO LPPD (PDL)
Name PONTA DELGADA
Region Portugal
Timezone Atlantic/Azores (UTC-1.0)
Stats Elevation 259 ft / 79 m (AMSL)
Location 37.742078° -25.697736°
Runways 1
Magnetic Variation 8.361° W

METAR

LPPD 162030Z VRB02KT 9999 FEW020 15/12 Q1031

Decode

TAF

TAF LPPD 161700Z 1618/1718 28010KT 9999 FEW015 BKN030 TEMPO 1618/1718 SCT018 BECMG 1618/1621 VRB05KT

Decode

Destination Runways

ID Width Length Bearing (true) Bearing (mag) Surface Threshold Offset Overrun Length
12 148 ft / 45 m 8,179 ft / 2,493 m 111.77° 120.13° Asphalt 0 ft / 0 m 375 ft / 114 m
30 148 ft / 45 m 8,179 ft / 2,493 m 291.79° 300.15° Asphalt 787 ft / 240 m 0 ft / 0 m

Approach Navaids

Runway Type Ident Frequency Range Bearing (true) Bearing (mag) Slope Elevation
30 Localiser NL 109.50 MHz 18 nm / 33 km 291.78° 300.14° - 259 ft / 79 m (AMSL)
30 Glidescope NL 109.50 MHz 10 nm / 19 km 291.78° 300.14° 3.00° 259 ft / 79 m (AMSL)
30 DME NL 109.50 MHz 18 nm / 33 km - - - 259 ft / 79 m (AMSL)

Popular Alternatives